Flight Track Log - Related Links

Times and Time Zones

All times are in EDT time to prevent confusion due to time zone crossing. See the ASQ5417 flight status page for this flight to view local times or setup timezone preferences in your user account.

Time Position Orientation Groundspeed Altitude Reporting Facility
EDT Latitude Longitude Course Direction KTS MPH feet Rate Location/Type
Mon 05:13:13 PM 36.3933 -82.5453 229° Southwest 206 237 8,900  Level Atlanta Center
Mon 05:14:13 PM 36.3356 -82.5953 215° Southwest 237 273 11,000 1,950 Climbing Atlanta Center
Mon 05:15:13 PM 36.2675 -82.6533 215° Southwest 289 333 12,800 1,200 Climbing Atlanta Center
Mon 05:16:13 PM 36.1972 -82.7111 214° Southwest 325 374 13,400 650 Climbing Atlanta Center
Mon 05:17:13 PM 36.1061 -82.7872 214° Southwest 376 433 14,100 800 Climbing Atlanta Center
Mon 05:18:13 PM 36.0131 -82.8681 215° Southwest 405 466 15,000 1,100 Climbing Atlanta Center
Mon 05:19:13 PM 35.9158 -82.9464 213° Southwest 419 482 16,300 1,300 Climbing Atlanta Center
Mon 05:20:13 PM 35.8247 -83.0219 214° Southwest 419 482 17,600 1,250 Climbing Atlanta Center
Mon 05:21:13 PM 35.7144 -83.0694 199° South 413 475 18,800 1,250 Climbing Atlanta Center
Mon 05:22:13 PM 35.6000 -83.0964 191° South 418 481 20,100 950 Climbing Atlanta Center
Mon 05:23:13 PM 35.4897 -83.1333 195° South 418 481 20,700 550 Climbing Atlanta Center
Mon 05:24:13 PM 35.3836 -83.2006 207° Southwest 426 490 21,200 500 Climbing Atlanta Center
Mon 05:25:13 PM 35.2672 -83.2808 209° Southwest 431 496 21,700 400 Climbing Atlanta Center
Mon 05:26:13 PM 35.1717 -83.3400 207° Southwest 431 496 22,000 150 Climbing Atlanta Center
Mon 05:27:13 PM 35.0575 -83.4147 208° Southwest 443 510 22,000 -150 Level Atlanta Center
Mon 05:28:13 PM 34.9492 -83.4864 208° Southwest 443 510 21,700 -800 Descending Atlanta Center
Mon 05:29:13 PM 34.8411 -83.5528 207° Southwest 448 516 20,400 -1,300 Descending Atlanta Center
Mon 05:30:13 PM 34.7347 -83.6142 205° Southwest 438 504 19,100 -1,250 Descending Atlanta Center
Mon 05:31:13 PM 34.6222 -83.6906 209° Southwest 430 495 17,900 -1,150 Descending Atlanta Center
Mon 05:32:13 PM 34.5161 -83.7564 207° Southwest 430 495 16,800 -1,150 Descending Atlanta Center
Mon 05:33:13 PM 34.4097 -83.8222 207° Southwest 430 495 15,600 -1,200 Descending Atlanta Center
Mon 05:34:13 PM 34.3117 -83.8878 209° Southwest 424 488 14,400 -1,250 Descending Atlanta Center
Mon 05:35:13 PM 34.2158 -83.9458 207° Southwest 406 467 13,100 -850 Descending Atlanta Center
Mon 05:36:13 PM 34.1428 -83.9961 210° Southwest 345 397 12,700 -1,050 Descending Atlanta Center
Mon 05:37:13 PM 34.0719 -84.0439 209° Southwest 299 344 11,000 -1,400 Descending Atlanta Center
Mon 05:38:13 PM 34.0008 -84.0864 206° Southwest 288 331 9,900 -550 Descending Atlanta Center
Mon 05:39:13 PM 33.9278 -84.0914 183° South 288 331 9,900 -600 Level Atlanta Center
Mon 05:40:13 PM 33.8464 -84.1039 187° South 295 339 8,700 -1,250 Descending Atlanta Center
Mon 05:41:13 PM 33.7711 -84.1414 202° Southwest 290 334 7,400 -1,400 Descending Atlanta Center
Mon 05:42:13 PM 33.7022 -84.1811 206° Southwest 281 323 5,900 -1,830 Descending Atlanta Center
Mon 05:43:34 PM 33.6500 -84.2833 238° Southwest 254 292 3,100 -1,660 Descending Atlanta TRACON
Mon 05:44:34 PM 33.6500 -84.3500 270° West 187 215 2,000 -1,000 Descending Atlanta TRACON
Mon 05:45:34 PM 33.6500 -84.4000 270° West 132 152 1,100 -900 Descending Atlanta TRACON
Mon 05:47:00 PM 33.6367 -84.4279 270° West  Level Estimated
Mon 05:54:00 PM 33.6367 -84.4279 103° East  Level Estimated

Login

Don't have an account? Register now (free) for customized features, flight alerts, and more!